createdAt,value
2018-12-24T00:01:18.516Z,5.30
2018-12-24T00:07:23.155Z,5.30
2018-12-24T00:13:27.892Z,5.20
2018-12-24T00:19:32.538Z,5.20
2018-12-24T00:25:37.210Z,5.10
2018-12-24T00:31:41.916Z,5.10
2018-12-24T00:37:46.607Z,5.10
2018-12-24T00:43:51.283Z,5.10
2018-12-24T00:49:55.977Z,5.10
2018-12-24T00:56:00.601Z,5.20
2018-12-24T01:02:05.259Z,5.10
2018-12-24T01:08:09.991Z,5.10
2018-12-24T01:14:14.654Z,5.10
2018-12-24T01:20:19.311Z,5.20
2018-12-24T01:26:24.005Z,5.10
2018-12-24T01:32:28.659Z,5.20
2018-12-24T01:38:33.322Z,5.20
2018-12-24T01:44:38.009Z,5.10
2018-12-24T01:50:42.710Z,5.10
2018-12-24T01:56:47.395Z,5.00
2018-12-24T02:02:52.042Z,5.00
2018-12-24T02:08:56.805Z,4.90
2018-12-24T02:15:01.457Z,4.90
2018-12-24T02:21:06.253Z,4.80
2018-12-24T02:27:10.905Z,4.80
2018-12-24T02:33:15.641Z,4.80
2018-12-24T02:39:20.366Z,4.80
2018-12-24T02:45:25.003Z,4.80
2018-12-24T02:51:29.674Z,4.90
2018-12-24T02:57:34.325Z,4.90
2018-12-24T03:03:39.014Z,5.00
2018-12-24T03:09:43.763Z,5.00
2018-12-24T03:15:48.433Z,5.10
2018-12-24T03:21:53.099Z,5.20
2018-12-24T03:27:57.818Z,5.20
2018-12-24T03:34:02.491Z,5.40
2018-12-24T03:40:07.155Z,5.40
2018-12-24T03:46:11.823Z,5.50
2018-12-24T03:52:16.535Z,5.50
2018-12-24T03:58:21.212Z,5.50
2018-12-24T04:04:25.913Z,5.50
2018-12-24T04:10:30.594Z,5.50
2018-12-24T04:16:35.339Z,5.50
2018-12-24T04:22:40.000Z,5.50
2018-12-24T04:28:44.650Z,5.40
2018-12-24T04:34:49.303Z,5.40
2018-12-24T04:40:53.976Z,5.40
2018-12-24T04:46:58.694Z,5.40
2018-12-24T04:53:03.351Z,5.30
2018-12-24T04:59:08.017Z,5.30
2018-12-24T05:05:12.685Z,5.20
2018-12-24T05:11:17.341Z,5.10
2018-12-24T05:17:22.070Z,5.10
2018-12-24T05:23:26.741Z,5.10
2018-12-24T05:29:31.410Z,5.10
2018-12-24T05:35:36.074Z,5.10
2018-12-24T05:41:40.726Z,5.10
2018-12-24T05:47:45.403Z,5.10
2018-12-24T05:53:50.031Z,5.20
2018-12-24T05:59:54.696Z,5.20
2018-12-24T06:05:59.363Z,5.20
2018-12-24T06:12:04.018Z,5.10
2018-12-24T06:18:08.682Z,5.00
2018-12-24T06:24:13.342Z,4.70
2018-12-24T06:30:18.013Z,4.70
2018-12-24T06:36:22.663Z,4.70
2018-12-24T06:42:27.320Z,4.50
2018-12-24T06:48:32.004Z,4.50
2018-12-24T06:54:36.637Z,4.40
2018-12-24T07:00:41.293Z,4.30
2018-12-24T07:06:45.993Z,4.30
2018-12-24T07:12:50.633Z,4.40
2018-12-24T07:18:55.314Z,4.40
2018-12-24T07:25:00.041Z,4.50
2018-12-24T07:31:04.686Z,4.50
2018-12-24T07:37:09.550Z,4.50
2018-12-24T07:43:14.296Z,4.50
2018-12-24T07:49:19.979Z,4.50
2018-12-24T07:55:24.715Z,4.50
2018-12-24T08:01:29.386Z,4.50
2018-12-24T08:07:34.060Z,4.60
2018-12-24T08:13:38.741Z,4.60
2018-12-24T08:19:43.392Z,4.70
2018-12-24T08:25:49.112Z,4.60
2018-12-24T08:31:53.851Z,4.70
2018-12-24T08:37:58.505Z,4.70
2018-12-24T08:44:03.167Z,4.70
2018-12-24T08:50:07.908Z,4.70
2018-12-24T08:56:12.561Z,4.60
2018-12-24T09:02:17.220Z,4.50
2018-12-24T09:08:23.055Z,4.30
2018-12-24T09:14:28.056Z,4.10
2018-12-24T09:20:32.704Z,4.00
2018-12-24T09:26:37.348Z,3.90
2018-12-24T09:32:42.033Z,3.90
2018-12-24T09:38:46.686Z,3.80
2018-12-24T09:44:58.730Z,3.90
2018-12-24T09:50:57.837Z,4.10
2018-12-24T09:57:02.502Z,4.30
2018-12-24T10:03:08.096Z,4.50
2018-12-24T10:09:13.056Z,4.50
2018-12-24T10:15:17.968Z,4.40
2018-12-24T10:21:22.706Z,4.20
2018-12-24T10:27:27.374Z,4.10
2018-12-24T10:33:32.153Z,3.80
2018-12-24T10:39:36.800Z,3.80
2018-12-24T10:45:41.457Z,3.80
2018-12-24T10:51:46.138Z,3.60
2018-12-24T10:57:50.797Z,3.60
2018-12-24T11:03:55.441Z,3.70
2018-12-24T11:10:00.217Z,3.60
2018-12-24T11:16:04.917Z,3.50
2018-12-24T11:22:09.592Z,3.40
2018-12-24T11:28:14.310Z,3.30
2018-12-24T11:34:19.043Z,3.30
2018-12-24T11:40:23.695Z,3.30
2018-12-24T11:46:28.343Z,3.20
2018-12-24T11:52:33.008Z,3.10
2018-12-24T11:58:37.675Z,3.10
2018-12-24T12:04:42.372Z,3.10
2018-12-24T12:10:47.015Z,3.20
2018-12-24T12:16:51.708Z,3.10
2018-12-24T12:22:56.384Z,3.00
2018-12-24T12:29:01.047Z,3.00
2018-12-24T12:35:06.246Z,3.10
2018-12-24T12:41:10.926Z,3.10
2018-12-24T12:47:15.657Z,3.10
2018-12-24T12:53:20.327Z,3.10
2018-12-24T12:59:25.013Z,3.10
2018-12-24T13:05:29.689Z,3.00
2018-12-24T13:11:34.341Z,2.90
2018-12-24T13:17:39.018Z,3.00
2018-12-24T13:23:43.700Z,3.00
2018-12-24T13:29:48.384Z,2.90
2018-12-24T13:35:53.113Z,2.90
2018-12-24T13:41:57.798Z,3.00
2018-12-24T13:48:02.487Z,3.10
2018-12-24T13:55:13.278Z,3.20
2018-12-24T14:01:56.293Z,3.20
2018-12-24T14:15:10.633Z,3.00
2018-12-24T14:21:53.646Z,3.00
2018-12-24T14:28:10.832Z,3.00
2018-12-24T14:34:34.794Z,2.90
2018-12-24T14:40:58.777Z,2.90
2018-12-24T14:47:22.777Z,2.90
2018-12-24T14:53:46.747Z,2.90
2018-12-24T15:00:10.758Z,2.90
2018-12-24T15:06:34.771Z,2.90
2018-12-24T15:12:58.789Z,2.80
2018-12-24T15:26:11.175Z,2.70
2018-12-24T15:32:35.076Z,2.60
2018-12-24T15:39:18.066Z,2.40
2018-12-24T15:45:41.954Z,2.30
2018-12-24T15:52:05.862Z,2.10
2018-12-24T15:58:29.753Z,2.20
2018-12-24T16:04:53.743Z,2.40
2018-12-24T16:11:17.635Z,2.50
2018-12-24T16:17:41.549Z,2.50
2018-12-24T16:24:05.518Z,2.40
2018-12-24T16:30:22.093Z,2.40
2018-12-24T16:36:45.991Z,2.30
2018-12-24T16:43:09.918Z,2.40
2018-12-24T16:49:33.870Z,2.50
2018-12-24T16:55:57.810Z,2.60
2018-12-24T17:02:21.735Z,2.40
2018-12-24T17:08:45.693Z,2.50
2018-12-24T17:15:09.597Z,2.50
2018-12-24T17:21:33.508Z,2.50
2018-12-24T17:27:50.188Z,2.50
2018-12-24T17:34:14.092Z,2.50
2018-12-24T17:40:38.075Z,2.50
2018-12-24T17:47:02.046Z,2.50
2018-12-24T17:53:45.081Z,2.50
2018-12-24T18:00:09.045Z,2.50
2018-12-24T18:06:32.993Z,2.50
2018-12-24T18:12:37.579Z,2.50
2018-12-24T18:18:42.156Z,2.50
2018-12-24T18:24:46.720Z,2.40
2018-12-24T18:30:51.277Z,2.40
2018-12-24T18:36:55.849Z,2.40
2018-12-24T18:43:00.466Z,2.30
2018-12-24T18:49:05.038Z,2.40
2018-12-24T18:55:09.604Z,2.50
2018-12-24T19:01:14.151Z,2.60
2018-12-24T19:07:18.762Z,2.70
2018-12-24T19:13:23.401Z,2.70
2018-12-24T19:19:27.951Z,2.70
2018-12-24T19:25:32.515Z,2.80
2018-12-24T19:31:37.068Z,2.80
2018-12-24T19:37:41.686Z,2.80
2018-12-24T19:43:46.245Z,2.90
2018-12-24T19:49:50.815Z,2.90
2018-12-24T19:55:55.445Z,2.90
2018-12-24T20:02:00.018Z,2.90
2018-12-24T20:08:04.633Z,3.00
2018-12-24T20:14:09.178Z,2.90
2018-12-24T20:20:13.848Z,3.00
2018-12-24T20:26:18.398Z,2.90
2018-12-24T20:32:23.041Z,2.90
2018-12-24T20:38:27.613Z,2.90
2018-12-24T20:44:32.212Z,3.00
2018-12-24T20:50:36.785Z,3.20
2018-12-24T20:56:41.434Z,3.20
2018-12-24T21:02:45.975Z,3.30
2018-12-24T21:08:50.543Z,3.40
2018-12-24T21:14:55.193Z,3.30
2018-12-24T21:20:59.756Z,3.30
2018-12-24T21:27:04.383Z,3.40
2018-12-24T21:33:08.949Z,3.40
2018-12-24T21:39:13.518Z,3.40
2018-12-24T21:45:18.075Z,3.30
2018-12-24T21:51:22.642Z,3.30
2018-12-24T21:57:27.240Z,3.40
2018-12-24T22:03:31.822Z,3.50
2018-12-24T22:09:36.374Z,3.50
2018-12-24T22:15:40.936Z,3.50
2018-12-24T22:21:45.522Z,3.50
2018-12-24T22:27:50.072Z,3.40
2018-12-24T22:33:54.703Z,3.40
2018-12-24T22:39:59.372Z,3.30
2018-12-24T22:46:04.002Z,3.40
2018-12-24T22:52:08.568Z,3.50
2018-12-24T22:58:13.128Z,3.50
2018-12-24T23:04:17.755Z,3.60
2018-12-24T23:10:22.324Z,3.60
2018-12-24T23:16:26.903Z,3.60
2018-12-24T23:22:33.104Z,3.70
2018-12-24T23:28:37.651Z,3.70
2018-12-24T23:34:42.233Z,3.70
2018-12-24T23:40:46.790Z,3.70
2018-12-24T23:46:51.379Z,3.70
2018-12-24T23:52:55.922Z,3.70
2018-12-24T23:59:00.632Z,3.70
